Anzeige # 
Titel Autor Zugriffe
CORONA Geschrieben von Super User 172
Weihnachten 2019 Geschrieben von Super User 248
PPL (A) Pilot Geschrieben von Super User 555
Unser neues Flugzeug Geschrieben von Super User 1508
Weihnachten Geschrieben von Super User 1334
PPL (A) Pilot Geschrieben von Super User 1766

Unterkategorien

Flugwetter Augsburg

[source: ADDS]
METAR
EDMA 022120Z AUTO 11004KT 9999 // FEW240/// 12/07 Q1013 =
TAF EDMA 021700Z 0218/0303 VRB03KT CAVOK
TAF
TAF EDMA 021700Z 0218/0303 VRB03KT CAVOK =
Cookies erleichtern die Bereitstellung unserer Dienste. Mit der Nutzung unserer Dienste erklären Sie sich damit einverstanden, dass wir Cookies verwenden.
Weitere Informationen Ok